createdAt,value
2023-02-25T00:01:26.437Z,80.10
2023-02-25T00:06:23.897Z,80.27
2023-02-25T00:11:22.111Z,80.54
2023-02-25T00:16:16.895Z,80.88
2023-02-25T00:18:46.138Z,80.98
2023-02-25T00:21:16.245Z,81.07
2023-02-25T00:23:48.891Z,81.11
2023-02-25T00:26:17.932Z,81.18
2023-02-25T00:28:47.869Z,81.34
2023-02-25T00:33:50.164Z,81.47
2023-02-25T00:38:51.238Z,82.24
2023-02-25T00:43:52.410Z,82.36
2023-02-25T00:46:21.281Z,82.42
2023-02-25T00:48:50.213Z,82.37
2023-02-25T00:51:22.022Z,82.36
2023-02-25T00:53:55.359Z,82.46
2023-02-25T00:56:25.679Z,82.48
2023-02-25T01:01:31.172Z,82.48
2023-02-25T01:03:59.992Z,82.58
2023-02-25T01:06:30.217Z,82.54
2023-02-25T01:08:59.638Z,82.54
2023-02-25T01:14:01.650Z,82.66
2023-02-25T01:19:02.016Z,82.80
2023-02-25T01:21:34.910Z,82.84
2023-02-25T01:24:13.683Z,82.90
2023-02-25T01:26:45.294Z,82.93
2023-02-25T01:29:17.668Z,83.22
2023-02-25T01:34:15.689Z,83.45
2023-02-25T01:39:10.641Z,83.75
2023-02-25T01:44:16.679Z,84.17
2023-02-25T01:46:48.592Z,84.12
2023-02-25T01:49:24.497Z,84.17
2023-02-25T01:51:56.567Z,84.31
2023-02-25T01:54:24.292Z,84.44
2023-02-25T01:56:55.422Z,84.49
2023-02-25T01:59:27.242Z,84.60
2023-02-25T02:04:22.121Z,84.67
2023-02-25T02:09:22.902Z,84.73
2023-02-25T02:11:51.588Z,84.71
2023-02-25T02:14:24.648Z,84.74
2023-02-25T02:17:24.688Z,84.87
2023-02-25T02:20:12.609Z,84.88
2023-02-25T02:25:52.318Z,84.96
2023-02-25T02:28:59.453Z,85.31
2023-02-25T02:31:50.680Z,85.22
2023-02-25T02:34:54.228Z,85.32
2023-02-25T02:40:29.917Z,85.55
2023-02-25T02:43:21.098Z,86.05
2023-02-25T02:46:25.225Z,86.32
2023-02-25T02:49:16.309Z,86.25
2023-02-25T02:52:01.819Z,86.35
2023-02-25T02:57:04.711Z,86.42
2023-02-25T03:02:03.994Z,86.31
2023-02-25T03:04:36.404Z,86.42
2023-02-25T03:07:07.964Z,86.45
2023-02-25T03:09:55.141Z,86.39
2023-02-25T03:12:24.609Z,86.35
2023-02-25T03:14:52.333Z,86.41
2023-02-25T03:17:25.094Z,86.54
2023-02-25T03:23:13.405Z,86.69
2023-02-25T03:25:49.229Z,86.84
2023-02-25T03:30:50.483Z,87.00
2023-02-25T03:36:33.275Z,87.06
2023-02-25T03:39:06.645Z,87.22
2023-02-25T03:41:38.889Z,87.11
2023-02-25T03:46:33.985Z,87.13
2023-02-25T03:51:35.140Z,87.28
2023-02-25T03:56:46.495Z,87.38
2023-02-25T03:59:15.370Z,87.42
2023-02-25T04:01:46.862Z,87.42
2023-02-25T04:04:15.382Z,87.42
2023-02-25T04:06:43.074Z,87.48
2023-02-25T04:09:10.987Z,87.50
2023-02-25T04:11:38.759Z,87.52
2023-02-25T04:14:06.695Z,87.53
2023-02-25T04:16:34.505Z,87.39
2023-02-25T04:19:02.898Z,87.44
2023-02-25T04:21:36.240Z,87.40
2023-02-25T04:24:06.300Z,87.40
2023-02-25T04:26:34.838Z,87.54
2023-02-25T04:29:03.503Z,87.53
2023-02-25T04:31:31.518Z,87.76
2023-02-25T04:33:59.449Z,87.91
2023-02-25T04:36:33.939Z,87.88
2023-02-25T04:39:05.073Z,87.84
2023-02-25T04:41:35.348Z,87.90
2023-02-25T04:44:04.721Z,87.83
2023-02-25T04:49:06.520Z,87.81
2023-02-25T04:51:34.656Z,87.78
2023-02-25T04:54:02.065Z,87.99
2023-02-25T04:56:29.881Z,87.96
2023-02-25T04:58:58.335Z,87.98
2023-02-25T05:01:26.357Z,88.07
2023-02-25T05:03:56.203Z,88.26
2023-02-25T05:06:28.391Z,88.21
2023-02-25T05:08:58.083Z,88.35
2023-02-25T05:11:29.893Z,88.22
2023-02-25T05:13:57.912Z,88.27
2023-02-25T05:16:26.982Z,88.29
2023-02-25T05:18:55.354Z,88.21
2023-02-25T05:21:25.894Z,88.25
2023-02-25T05:23:54.499Z,88.28
2023-02-25T05:26:25.068Z,88.21
2023-02-25T05:28:55.833Z,88.37
2023-02-25T05:31:25.584Z,88.30
2023-02-25T05:33:53.579Z,88.28
2023-02-25T05:36:21.489Z,88.25
2023-02-25T05:38:49.597Z,88.16
2023-02-25T05:41:17.186Z,88.23
2023-02-25T05:43:45.562Z,88.27
2023-02-25T05:46:14.557Z,88.25
2023-02-25T05:48:47.753Z,88.23
2023-02-25T05:51:18.759Z,88.30
2023-02-25T05:53:48.569Z,88.36
2023-02-25T05:56:21.940Z,88.38
2023-02-25T05:58:50.317Z,88.38
2023-02-25T06:01:22.305Z,88.40
2023-02-25T06:03:55.939Z,88.42
2023-02-25T06:06:29.620Z,88.46
2023-02-25T06:08:57.552Z,88.48
2023-02-25T06:11:29.709Z,88.50
2023-02-25T06:13:58.701Z,88.54
2023-02-25T06:16:44.035Z,88.57
2023-02-25T06:19:25.894Z,88.71
2023-02-25T06:21:56.060Z,88.73
2023-02-25T06:24:24.392Z,88.77
2023-02-25T06:26:52.303Z,88.80
2023-02-25T06:29:19.847Z,88.92
2023-02-25T06:31:50.666Z,88.87
2023-02-25T06:34:18.797Z,88.86
2023-02-25T06:36:46.741Z,88.90
2023-02-25T06:39:14.699Z,88.93
2023-02-25T06:41:42.502Z,89.15
2023-02-25T06:44:10.599Z,89.09
2023-02-25T06:46:38.345Z,89.02
2023-02-25T06:49:06.223Z,89.13
2023-02-25T06:51:36.296Z,89.16
2023-02-25T06:54:04.619Z,89.14
2023-02-25T06:56:32.405Z,89.22
2023-02-25T06:59:00.304Z,89.17
2023-02-25T07:01:28.264Z,89.22
2023-02-25T07:03:56.345Z,89.14
2023-02-25T07:06:24.621Z,89.24
2023-02-25T07:08:52.659Z,89.27
2023-02-25T07:11:28.502Z,89.22
2023-02-25T07:13:57.138Z,89.25
2023-02-25T07:16:25.554Z,89.28
2023-02-25T07:18:53.539Z,89.26
2023-02-25T07:21:22.569Z,89.14
2023-02-25T07:23:50.661Z,89.12
2023-02-25T07:26:18.473Z,89.00
2023-02-25T07:28:47.747Z,89.04
2023-02-25T07:31:19.093Z,89.01
2023-02-25T07:33:48.008Z,88.89
2023-02-25T07:36:16.154Z,88.77
2023-02-25T07:38:44.501Z,88.64
2023-02-25T07:41:16.606Z,88.54
2023-02-25T07:43:45.131Z,88.44
2023-02-25T07:46:13.276Z,88.30
2023-02-25T07:48:41.174Z,88.12
2023-02-25T07:51:16.678Z,88.01
2023-02-25T07:53:53.004Z,87.95
2023-02-25T07:56:22.939Z,87.90
2023-02-25T07:58:50.914Z,87.84
2023-02-25T08:01:25.929Z,87.79
2023-02-25T08:04:00.839Z,87.72
2023-02-25T08:06:28.828Z,87.66
2023-02-25T08:08:56.886Z,87.67
2023-02-25T08:11:27.078Z,87.58
2023-02-25T08:13:55.503Z,87.48
2023-02-25T08:16:23.207Z,87.38
2023-02-25T08:18:52.496Z,87.29
2023-02-25T08:21:23.230Z,87.25
2023-02-25T08:23:54.761Z,87.12
2023-02-25T08:26:25.018Z,87.06
2023-02-25T08:28:55.754Z,87.00
2023-02-25T08:31:23.956Z,86.87
2023-02-25T08:33:53.208Z,86.76
2023-02-25T08:36:26.245Z,86.68
2023-02-25T08:38:56.971Z,86.68
2023-02-25T08:41:27.101Z,86.64
2023-02-25T08:46:26.721Z,86.58
2023-02-25T08:51:24.233Z,86.38
2023-02-25T08:56:18.320Z,86.61
2023-02-25T08:58:46.243Z,86.70
2023-02-25T09:01:16.640Z,86.78
2023-02-25T09:03:53.638Z,86.81
2023-02-25T09:08:55.167Z,86.46
2023-02-25T09:13:52.980Z,86.33
2023-02-25T09:16:21.324Z,86.36
2023-02-25T09:18:51.059Z,86.48
2023-02-25T09:21:19.710Z,86.66
2023-02-25T09:23:47.875Z,86.90
2023-02-25T09:26:15.868Z,86.97
2023-02-25T09:28:44.115Z,87.06
2023-02-25T09:31:12.365Z,87.06
2023-02-25T09:33:42.225Z,87.06
2023-02-25T09:36:16.914Z,86.98
2023-02-25T09:38:46.930Z,86.91
2023-02-25T09:41:31.192Z,86.78
2023-02-25T09:44:07.860Z,86.52
2023-02-25T09:49:08.708Z,86.25
2023-02-25T09:51:40.766Z,85.71
2023-02-25T09:54:20.605Z,85.61
2023-02-25T09:56:49.985Z,85.49
2023-02-25T09:59:20.978Z,85.35
2023-02-25T10:01:56.963Z,85.25
2023-02-25T10:04:39.394Z,85.28
2023-02-25T10:07:25.086Z,84.94
2023-02-25T10:10:09.750Z,84.95
2023-02-25T10:15:57.534Z,84.56
2023-02-25T10:21:53.978Z,84.05
2023-02-25T10:24:48.497Z,83.81
2023-02-25T10:27:39.117Z,83.57
2023-02-25T10:30:32.337Z,83.50
2023-02-25T10:33:08.469Z,83.04
2023-02-25T10:35:39.493Z,82.65
2023-02-25T10:38:10.086Z,82.41
2023-02-25T10:46:25.016Z,80.40
2023-02-25T10:49:00.155Z,80.30
2023-02-25T10:54:00.008Z,78.85
2023-02-25T10:56:44.516Z,78.69
2023-02-25T11:01:43.537Z,77.51
2023-02-25T11:04:15.594Z,76.87
2023-02-25T11:06:44.411Z,76.64
2023-02-25T11:09:26.475Z,75.59
2023-02-25T11:12:11.407Z,76.04
2023-02-25T11:14:39.594Z,76.07
2023-02-25T11:17:18.888Z,76.38
2023-02-25T11:22:25.870Z,75.12
2023-02-25T11:25:01.896Z,74.79
2023-02-25T11:27:39.811Z,74.21
2023-02-25T11:30:25.328Z,75.22
2023-02-25T11:38:29.379Z,77.03
2023-02-25T11:40:57.542Z,76.14
2023-02-25T11:43:35.360Z,75.02
2023-02-25T11:46:23.608Z,75.19
2023-02-25T11:49:16.062Z,74.91
2023-02-25T11:51:59.277Z,75.00
2023-02-25T11:54:47.631Z,75.49
2023-02-25T12:03:02.033Z,78.11
2023-02-25T12:05:50.524Z,78.30
2023-02-25T12:08:49.760Z,78.67
2023-02-25T12:11:44.289Z,78.61
2023-02-25T12:14:44.534Z,78.31
2023-02-25T12:20:05.280Z,78.52
2023-02-25T12:22:53.089Z,79.14
2023-02-25T12:25:33.253Z,80.42
2023-02-25T12:28:26.106Z,78.30
2023-02-25T12:31:14.459Z,78.22
2023-02-25T12:34:22.963Z,79.99
2023-02-25T12:43:24.479Z,83.41
2023-02-25T12:46:26.445Z,83.73
2023-02-25T12:49:14.886Z,85.27
2023-02-25T12:51:56.848Z,86.33
2023-02-25T12:55:08.300Z,86.07
2023-02-25T12:57:58.780Z,85.73
2023-02-25T13:03:28.394Z,85.45
2023-02-25T13:06:23.220Z,85.38
2023-02-25T13:12:30.591Z,86.32
2023-02-25T13:15:06.946Z,86.29
2023-02-25T13:18:00.947Z,86.46
2023-02-25T13:20:52.823Z,86.54
2023-02-25T13:24:04.376Z,86.54
2023-02-25T13:29:27.782Z,86.36
2023-02-25T13:32:26.400Z,86.45
2023-02-25T13:35:17.763Z,86.48
2023-02-25T13:40:48.051Z,87.53
2023-02-25T13:43:42.378Z,87.25
2023-02-25T13:46:37.489Z,87.38
2023-02-25T13:49:40.009Z,87.75
2023-02-25T13:52:45.147Z,87.57
2023-02-25T13:55:30.664Z,87.55
2023-02-25T14:01:53.935Z,87.47
2023-02-25T14:05:02.323Z,87.35
2023-02-25T14:11:01.630Z,87.51
2023-02-25T14:16:20.616Z,87.28
2023-02-25T14:19:10.904Z,87.53
2023-02-25T14:22:08.622Z,87.76
2023-02-25T14:25:00.276Z,87.69
2023-02-25T14:27:54.352Z,86.85
2023-02-25T14:33:35.185Z,86.76
2023-02-25T14:36:37.340Z,86.71
2023-02-25T14:39:43.932Z,86.67
2023-02-25T14:42:41.213Z,86.44
2023-02-25T14:45:14.883Z,85.19
2023-02-25T14:51:01.434Z,85.20
2023-02-25T14:53:51.559Z,85.23
2023-02-25T14:56:58.552Z,85.11
2023-02-25T14:59:41.292Z,85.17
2023-02-25T15:02:40.635Z,85.00
2023-02-25T15:08:20.280Z,84.56
2023-02-25T15:14:25.859Z,84.24
2023-02-25T15:19:40.280Z,84.31
2023-02-25T15:22:24.704Z,83.79
2023-02-25T15:25:15.046Z,84.11
2023-02-25T15:30:23.414Z,82.65
2023-02-25T15:33:08.650Z,83.10
2023-02-25T15:35:41.911Z,82.95
2023-02-25T15:38:24.005Z,83.25
2023-02-25T15:43:30.684Z,83.22
2023-02-25T15:46:13.320Z,83.46
2023-02-25T15:48:42.654Z,83.64
2023-02-25T15:53:45.008Z,83.80
2023-02-25T16:01:42.265Z,83.82
2023-02-25T16:04:42.834Z,83.84
2023-02-25T16:07:15.326Z,83.89
2023-02-25T16:12:16.946Z,83.67
2023-02-25T16:14:45.779Z,83.53
2023-02-25T16:22:33.268Z,83.71
2023-02-25T16:28:08.400Z,83.83
2023-02-25T16:30:44.652Z,83.93
2023-02-25T16:39:06.156Z,84.11
2023-02-25T16:41:38.658Z,84.27
2023-02-25T16:44:04.426Z,84.29
2023-02-25T16:46:41.018Z,84.38
2023-02-25T16:49:13.289Z,84.50
2023-02-25T16:54:14.385Z,84.45
2023-02-25T16:56:45.800Z,84.51
2023-02-25T17:01:56.383Z,84.67
2023-02-25T17:04:36.774Z,84.71
2023-02-25T17:07:17.156Z,84.73
2023-02-25T17:09:49.244Z,84.70
2023-02-25T17:14:50.856Z,84.82
2023-02-25T17:17:38.186Z,84.87
2023-02-25T17:22:54.086Z,84.98
2023-02-25T17:25:32.128Z,85.01
2023-02-25T17:27:59.762Z,84.90
2023-02-25T17:30:37.210Z,84.80
2023-02-25T17:35:33.274Z,84.69
2023-02-25T17:38:02.251Z,84.92
2023-02-25T17:40:30.106Z,85.03
2023-02-25T17:43:39.366Z,85.17
2023-02-25T17:46:32.749Z,85.12
2023-02-25T17:49:23.019Z,85.04
2023-02-25T17:52:05.343Z,85.04
2023-02-25T17:54:36.672Z,85.20
2023-02-25T17:57:18.040Z,85.11
2023-02-25T18:02:46.190Z,84.95
2023-02-25T18:07:47.088Z,85.22
2023-02-25T18:10:34.988Z,85.30
2023-02-25T18:13:05.032Z,85.35
2023-02-25T18:15:33.794Z,85.38
2023-02-25T18:18:05.379Z,85.45
2023-02-25T18:20:43.476Z,85.40
2023-02-25T18:23:27.191Z,85.31
2023-02-25T18:26:24.007Z,85.29
2023-02-25T18:28:53.174Z,85.28
2023-02-25T18:31:21.826Z,85.26
2023-02-25T18:33:50.144Z,85.33
2023-02-25T18:36:27.536Z,85.39
2023-02-25T18:38:59.821Z,85.48
2023-02-25T18:43:54.186Z,85.49
2023-02-25T18:46:22.369Z,85.49
2023-02-25T18:48:49.258Z,85.64
2023-02-25T18:51:17.697Z,85.66
2023-02-25T18:53:46.271Z,85.63
2023-02-25T18:56:17.772Z,85.56
2023-02-25T18:58:48.681Z,85.63
2023-02-25T19:01:26.498Z,85.70
2023-02-25T19:03:56.353Z,85.68
2023-02-25T19:06:27.534Z,85.58
2023-02-25T19:08:55.373Z,85.40
2023-02-25T19:11:31.037Z,85.22
2023-02-25T19:16:26.079Z,84.63
2023-02-25T19:18:53.995Z,83.83
2023-02-25T19:21:22.257Z,83.84
2023-02-25T19:23:53.437Z,83.91
2023-02-25T19:26:21.926Z,83.89
2023-02-25T20:00:18.019Z,81.48
2023-02-25T20:31:18.860Z,82.72
2023-02-25T20:33:53.799Z,82.81
2023-02-25T20:36:28.953Z,82.80
2023-02-25T20:42:41.180Z,82.97
2023-02-25T20:45:14.949Z,83.16
2023-02-25T20:47:43.267Z,83.26
2023-02-25T20:50:17.880Z,83.33
2023-02-25T20:52:45.839Z,83.39
2023-02-25T20:55:13.781Z,83.40
2023-02-25T20:57:43.408Z,83.43
2023-02-25T21:00:17.272Z,83.46
2023-02-25T21:02:49.164Z,83.54
2023-02-25T21:05:18.805Z,83.51
2023-02-25T21:07:46.622Z,83.51
2023-02-25T21:10:20.937Z,83.51
2023-02-25T21:14:00.879Z,83.35
2023-02-25T21:15:51.347Z,83.46
2023-02-25T21:18:25.471Z,83.00
2023-02-25T21:21:07.229Z,82.86
2023-02-25T21:23:36.578Z,83.03
2023-02-25T21:26:06.630Z,83.00
2023-02-25T21:28:35.524Z,83.09
2023-02-25T21:31:08.408Z,83.22
2023-02-25T21:33:37.600Z,83.32
2023-02-25T21:36:07.719Z,83.39
2023-02-25T21:38:36.818Z,83.45
2023-02-25T21:41:10.097Z,83.55
2023-02-25T21:43:38.927Z,83.65
2023-02-25T21:46:12.164Z,83.68
2023-02-25T21:48:42.286Z,83.67
2023-02-25T21:51:17.682Z,83.64
2023-02-25T21:53:45.584Z,83.50
2023-02-25T21:56:16.746Z,83.57
2023-02-25T21:58:45.636Z,83.59
2023-02-25T22:01:21.048Z,83.57
2023-02-25T22:03:49.411Z,83.50
2023-02-25T22:06:18.576Z,83.48
2023-02-25T22:08:46.460Z,83.42
2023-02-25T22:11:18.995Z,83.38
2023-02-25T22:13:47.820Z,83.35
2023-02-25T22:16:20.805Z,83.38
2023-02-25T22:18:49.829Z,83.28
2023-02-25T22:21:21.543Z,83.26
2023-02-25T22:23:51.600Z,83.15
2023-02-25T22:26:22.955Z,83.05
2023-02-25T22:28:54.374Z,82.93
2023-02-25T22:31:22.364Z,82.86
2023-02-25T22:33:50.436Z,82.91
2023-02-25T22:36:19.615Z,82.85
2023-02-25T22:38:49.673Z,82.93
2023-02-25T22:41:27.735Z,83.06
2023-02-25T22:43:57.942Z,83.21
2023-02-25T22:46:33.150Z,83.28
2023-02-25T22:49:00.843Z,83.33
2023-02-25T22:51:35.716Z,83.47
2023-02-25T22:54:04.563Z,83.50
2023-02-25T22:56:32.648Z,83.59
2023-02-25T22:59:01.158Z,83.60
2023-02-25T23:01:29.033Z,83.58
2023-02-25T23:03:57.126Z,83.61
2023-02-25T23:06:42.225Z,83.71
2023-02-25T23:08:59.114Z,83.81
2023-02-25T23:11:31.180Z,83.89
2023-02-25T23:14:00.981Z,83.89
2023-02-25T23:16:38.667Z,83.83
2023-02-25T23:19:09.361Z,83.91
2023-02-25T23:21:40.620Z,84.07
2023-02-25T23:24:12.341Z,84.19
2023-02-25T23:26:41.877Z,84.18
2023-02-25T23:29:11.982Z,84.19
2023-02-25T23:31:47.237Z,84.24
2023-02-25T23:34:18.628Z,84.21
2023-02-25T23:36:46.798Z,84.17
2023-02-25T23:39:15.908Z,84.24
2023-02-25T23:41:43.926Z,84.27
2023-02-25T23:44:13.489Z,84.44
2023-02-25T23:46:42.630Z,84.35
2023-02-25T23:49:13.581Z,84.43
2023-02-25T23:51:46.439Z,84.69
2023-02-25T23:54:17.512Z,84.65
2023-02-25T23:56:45.646Z,84.47
2023-02-25T23:59:13.889Z,84.44
